Главная страница
METAR-TAF:

METAR-TAF

Аэропорты :

Эн-Наджаф, Ирак

широта: 31-59-23N, долгота: 44-24-15E, высота над уровнем моря: 31 м

Текущие метеонаблюдения

Эта сводка был подготовлена 1 час и 4 минут назад, в 02:00 UTC
Ветер 8 Узел от северо-северо-восточный
Температура 20°C
Влажность 56%
Давление 1008 hPa
Видимость: 7000 м

METAR: ORNI 150200Z 02008KT 7000 NSC 20/11 Q1008

Время: 06:04 (03:04 UTC)


TAF: отсутствует

Метеонаблюдения и прогнозы для более 4000 аэропортов (сводки METAR и TAF).

Имеющиеся станции представлены на карте желтыми и красными точками.

Чтобы увидеть название станции, наведите на нее мышь.

Затем щелкните, чтобы увидеть метеонаблюдения и метеопрогнозы.

Управление картой: чтобы увеличить масштаб, щелкните зеленые кнопки с черным крестиком; чтобы уменьшить масштаб, щелкните зеленую кнопку с тире; для просмотра соседних карт щелкайте зеленые стрелки.


METAR-TAF: